• Join FlightAware (Why Join?)
  • Login
  • US Flag 
08:59PM EDT


 

Airport Tracker/Info


-or-


 

Live Flight TrackerFlight Track Log ✈ UAL4401 ✈ 27-Apr-2013 ✈ KOKC - KIAH

Flight Track Log - Related Links

Times and Time Zones

All times are in EDT time to prevent confusion due to time zone crossing. See the UAL4401 flight status page for this flight to view local times or setup timezone preferences in your user account.

Time Position Orientation Groundspeed Altitude Reporting Facility
EDT Latitude Longitude Course Direction KTS MPH feet Rate Location/Type
06:16PM 35.4019 -97.5944 154° Southeast 154 177 1,800  Level Fort Worth Center
06:18PM 35.4372 -97.6456 310° West 215 247 5,200 2,760 Climbing Fort Worth Center
06:19PM 35.3789 -97.6681 197° South 286 329 7,700 2,400 Climbing Fort Worth Center
06:20PM 35.0353 -97.4419 175° South  Level Estimated
06:20PM 35.2997 -97.6322 160° South 316 364 10,200  Level Fort Worth Center
06:21PM 34.9459 -97.4024 162° South  Level Estimated
06:21PM 35.2100 -97.5939 161° South 334 384 11,100  Level Fort Worth Center
06:22PM 34.8564 -97.3630 154° Southeast  Level Estimated
06:22PM 35.1058 -97.5506 161° South 370 426 12,500  Level Fort Worth Center
06:23PM 34.9975 -97.5022 160° South 400 460 14,300 1,800 Climbing Fort Worth Center
06:24PM 34.8847 -97.4742 168° South 412 474 16,200 1,920 Climbing Fort Worth Center
06:25PM 34.7764 -97.4539 171° South 412 474 18,200 1,980 Climbing Fort Worth Center
06:26PM 34.6678 -97.4311 170° South 407 468 20,200 1,920 Climbing Fort Worth Center
06:27PM 34.5594 -97.4058 169° South 402 463 22,100 1,380 Climbing Fort Worth Center
06:28PM 34.4531 -97.3733 166° South 402 463 23,000 1,020 Climbing Fort Worth Center
06:29PM 34.3381 -97.3381 166° South 409 471 24,200 1,440 Climbing Fort Worth Center
06:30PM 34.2256 -97.3031 166° South 414 476 25,900 2,400 Climbing Fort Worth Center
06:31PM 34.1189 -97.2706 166° South 408 470 29,000 1,500 Climbing Fort Worth Center
06:32PM 34.0022 -97.2331 165° South 392 451 29,000  Level Fort Worth Center
06:33PM 33.8914 -97.2008 166° South 404 465 29,000  Level Fort Worth Center
06:34PM 33.7744 -97.1636 165° South 431 496 29,000  Level Fort Worth Center
06:35PM 33.6533 -97.1289 167° South 438 504 29,000  Level Fort Worth Center
06:36PM 33.5303 -97.0919 166° South 445 512 29,000  Level Fort Worth Center
06:37PM 33.4217 -97.0625 167° South 450 518 29,000  Level Fort Worth Center
06:38PM 33.3003 -97.0258 166° South 450 518 29,000  Level Fort Worth Center
06:39PM 33.1814 -96.9889 165° South 450 518 29,000 -180 Level Fort Worth Center
06:40PM 33.0558 -96.9525 166° South 450 518 28,700 -1,020 Descending Fort Worth Center
06:41PM 32.9222 -96.9158 167° South 450 518 27,000 -1,560 Descending Fort Worth Center
06:42PM 32.8178 -96.8844 166° South 437 503 25,600 -1,020 Descending Fort Worth Center
06:43PM 32.6922 -96.8506 167° South 431 496 25,000 -300 Descending Fort Worth Center
06:44PM 32.5772 -96.8144 165° South 431 496 25,000  Level Fort Worth Center
06:45PM 32.4622 -96.7831 167° South 431 496 25,000  Level Fort Worth Center
06:46PM 32.3453 -96.7494 166° South 431 496 25,000  Level Fort Worth Center
06:47PM 32.2428 -96.7208 167° South 431 496 25,000  Level Fort Worth Center
06:48PM 32.1297 -96.6897 167° South 425 489 25,000  Level Fort Worth Center
06:49PM 32.0147 -96.6564 166° South 425 489 25,000  Level Fort Worth Center
06:50PM 31.8894 -96.6206 166° South 425 489 25,000  Level Fort Worth Center
06:51PM 31.7744 -96.5875 166° South 425 489 25,000  Level Fort Worth Center
06:52PM 31.6592 -96.5542 166° South 425 489 25,000  Level Fort Worth Center
06:52PM 31.6006 -96.5372 166° South 426 490 25,000  Level Houston Center
06:53PM 31.4833 -96.5011 165° South 430 495 25,000  Level Houston Center
06:54PM 31.3675 -96.4567 162° South 430 495 25,000  Level Houston Center
06:55PM 31.2547 -96.4142 162° South 423 487 25,000  Level Houston Center
06:56PM 31.1389 -96.3717 163° South 428 493 25,000 -720 Level Houston Center
06:57PM 31.0247 -96.3289 162° South 426 490 23,600 -1,980 Descending Houston Center
06:58PM 30.9131 -96.2861 162° South 419 482 21,000 -2,640 Descending Houston Center
06:59PM 30.7933 -96.2194 154° Southeast 418 481 18,200 -2,580 Descending Houston Center
07:00PM 30.7094 -96.1303 138° Southeast 407 468 15,800 -2,280 Descending Houston Center
07:01PM 30.6311 -96.0475 138° Southeast 381 438 13,600 -2,280 Descending Houston Center
07:02PM 30.5967 -96.0161 142° Southeast 372 428 12,400 -2,280 Descending Houston Center
07:02PM 30.5603 -95.9756 136° Southeast 377 434 11,300 -1,620 Descending Houston Center
07:03PM 30.4872 -95.8983 138° Southeast 358 412 9,900 -840 Descending Houston Center
07:04PM 30.4358 -95.8311 132° Southeast 312 359 9,800 -300 Descending Houston Center
07:05PM 30.4342 -95.8236 104° East 318 366 9,600 -1,440 Descending Houston Center
07:05PM 30.4403 -95.7386 85° East 290 334 8,400 -1,680 Descending Houston Center
07:06PM 30.4450 -95.7119 78° East 294 338 7,900 -1,320 Descending Houston Center
07:06PM 30.4561 -95.6567 77° East 276 318 7,200 -1,020 Descending Houston Center
07:07PM 30.4611 -95.6256 79° East 277 319 6,900 -120 Descending Houston Center
07:07PM 30.4719 -95.5750 76° East 264 304 7,100  Climbing Houston Center
07:08PM 30.4781 -95.5428 78° East 266 306 6,900  Descending Houston Center
07:08PM 30.4903 -95.4758 78° East 270 311 7,100  Climbing Houston Center
07:09PM 30.4950 -95.4581 73° East 269 310 6,900 -120 Descending Houston Center
07:09PM 30.5061 -95.3961 78° East 273 314 7,000  Climbing Houston Center
07:10PM 30.5128 -95.3653 76° East 270 311 6,900 -420 Descending Houston Center
07:10PM 30.4944 -95.3153 113° Southeast 280 322 6,600 -900 Descending Houston Center
07:11PM 30.4778 -95.2892 127° Southeast 275 316 6,000 -600 Descending Houston Center
07:11PM 30.4503 -95.2456 126° Southeast 271 312 6,000 -120 Level Houston Center
07:12PM 30.4347 -95.2192 124° Southeast 269 310 5,900  Descending Houston Center
07:12PM 30.4056 -95.1686 124° Southeast 272 313 6,000 60 Climbing Houston Center
07:13PM 30.3964 -95.1519 123° Southeast 271 312 6,000  Level Houston Center
07:13PM 30.3489 -95.1006 137° Southeast 269 310 6,000  Level Houston Center
07:14PM 30.3414 -95.0944 145° Southeast 270 311 6,000  Level Houston Center
07:14PM 30.2872 -95.0500 145° Southeast 274 315 6,000  Level Houston Center
07:15PM 30.2664 -95.0333 145° Southeast 273 314 6,000  Level Houston Center
07:15PM 30.2239 -94.9997 146° Southeast 271 312 6,000 60 Level Houston Center
07:16PM 30.2028 -94.9875 153° Southeast 275 316 6,100  Climbing Houston Center
07:16PM 30.1475 -94.9925 184° South 270 311 6,000 -120 Descending Houston Center
07:17PM 30.1272 -94.9947 185° South 272 313 6,000 -540 Level Houston Center
07:17PM 30.0739 -95.0136 197° South 269 310 5,500 -900 Descending Houston Center
07:18PM 30.0583 -95.0236 209° Southwest 267 307 5,100 -1,560 Descending Houston Center
07:18PM 30.0142 -95.0478 205° Southwest 269 310 4,100 -1,560 Descending Houston Center
07:19PM 29.9956 -95.0686 224° Southwest 272 313 3,500 -1,140 Descending Houston Center
07:19PM 29.9939 -95.1250 268° West 248 285 3,000 -540 Descending Houston Center
07:20PM 29.9936 -95.1492 269° West 259 298 3,000  Level Houston Center